Time;durP1;ratioP1;P1;durP2;ratioP2;P2;SDS_P1;SDS_P2;PMS_P1;PMS_P2;Temp;Humidity;BMP_temperature;BMP_pressure;BME280_temperature;BME280_humidity;BME280_pressure;Samples;Min_cycle;Max_cycle;Signal;HPM_P1;HPM_P2
2022/04/25 00:01:42;;;;;;;11.80;7.32;;;9.50;99.90;;;;;;4984058;28;20028;-74
2022/04/25 00:04:08;;;;;;;11.07;7.90;;;9.60;99.90;;;;;;4983829;28;20032;-74
2022/04/25 00:06:34;;;;;;;12.77;7.35;;;9.50;99.90;;;;;;5001433;28;20078;-74
2022/04/25 00:09:00;;;;;;;9.48;8.02;;;9.60;99.90;;;;;;5001177;28;20030;-74
2022/04/25 00:11:26;;;;;;;14.65;8.55;;;9.60;99.90;;;;;;5001234;28;20645;-75
2022/04/25 00:13:51;;;;;;;11.32;7.75;;;9.60;99.90;;;;;;5001337;28;20147;-75
2022/04/25 00:16:18;;;;;;;12.20;7.50;;;9.50;99.90;;;;;;4983291;28;20055;-75
2022/04/25 00:18:45;;;;;;;8.85;6.82;;;9.30;99.90;;;;;;4964863;28;20023;-74
2022/04/25 00:21:11;;;;;;;12.05;7.47;;;9.20;99.90;;;;;;4964134;28;20033;-75
2022/04/25 00:23:36;;;;;;;13.35;7.68;;;9.10;99.90;;;;;;4981196;28;20023;-75
2022/04/25 00:26:04;;;;;;;11.80;8.43;;;9.00;99.90;;;;;;4981501;28;20022;-75
2022/04/25 00:28:30;;;;;;;15.52;9.10;;;8.90;99.90;;;;;;4963754;28;20035;-75
2022/04/25 00:30:56;;;;;;;17.35;8.55;;;8.80;99.90;;;;;;4963874;28;20026;-75
2022/04/25 00:33:22;;;;;;;11.50;8.00;;;8.80;99.90;;;;;;4981152;28;20093;-75
2022/04/25 00:35:47;;;;;;;10.35;8.43;;;8.70;99.90;;;;;;4963795;28;20015;-74
2022/04/25 00:38:13;;;;;;;13.25;7.50;;;8.70;99.90;;;;;;4981208;28;20027;-74
2022/04/25 00:40:40;;;;;;;13.20;8.55;;;8.70;99.90;;;;;;4981330;28;20098;-74
2022/04/25 00:43:07;;;;;;;11.45;9.38;;;8.70;99.90;;;;;;4981263;28;20034;-74
2022/04/25 00:45:33;;;;;;;13.70;8.40;;;8.60;99.90;;;;;;4963539;28;20023;-74
2022/04/25 00:47:59;;;;;;;18.17;8.43;;;8.60;99.90;;;;;;4987705;28;20034;-75
2022/04/25 00:50:25;;;;;;;9.10;7.90;;;8.60;99.90;;;;;;4983110;28;20037;-75
2022/04/25 00:52:51;;;;;;;12.30;8.65;;;8.60;99.90;;;;;;4982762;28;20030;-75
2022/04/25 00:55:17;;;;;;;22.23;9.50;;;8.50;99.90;;;;;;5000258;28;20105;-75
2022/04/25 00:57:43;;;;;;;19.60;8.85;;;8.50;99.90;;;;;;4982789;28;20033;-75
2022/04/25 01:00:12;;;;;;;12.73;8.75;;;8.50;99.90;;;;;;4999908;28;20395;-75
2022/04/25 01:02:39;;;;;;;15.88;9.15;;;8.50;99.90;;;;;;5000489;28;20018;-76
2022/04/25 01:05:07;;;;;;;11.75;7.72;;;8.50;99.90;;;;;;4999461;28;20099;-75
2022/04/25 01:07:38;;;;;;;12.35;8.52;;;8.40;99.90;;;;;;4982339;28;20157;-75
2022/04/25 01:10:04;;;;;;;;;;;8.40;99.90;;;;;;5000499;28;20095;-75
2022/04/25 01:12:30;;;;;;;14.30;8.45;;;8.40;99.90;;;;;;4982674;28;19905;-75
2022/04/25 01:15:01;;;;;;;10.95;8.70;;;8.40;99.90;;;;;;4999673;28;20479;-75
2022/04/25 01:17:27;;;;;;;;;;;8.40;99.90;;;;;;4991782;28;20037;-75
2022/04/25 01:19:53;;;;;;;11.02;8.80;;;8.40;99.90;;;;;;4963284;28;19910;-75
2022/04/25 01:22:30;;;;;;;14.45;8.32;;;8.40;99.90;;;;;;4980340;28;20083;-76
2022/04/25 01:27:41;;;;;;;17.77;9.98;;;8.40;99.90;;;;;;4980331;28;20082;-75
2022/04/25 01:30:09;;;;;;;13.32;8.35;;;8.40;99.90;;;;;;4962869;28;20035;-75
2022/04/25 01:32:36;;;;;;;11.40;8.82;;;8.40;99.90;;;;;;4980128;28;20521;-75
2022/04/25 01:35:02;;;;;;;15.73;8.38;;;8.40;99.90;;;;;;4980331;28;20026;-75
2022/04/25 01:37:28;;;;;;;11.70;9.32;;;8.30;99.90;;;;;;4979879;28;20031;-76
2022/04/25 01:39:55;;;;;;;16.00;8.48;;;8.30;99.90;;;;;;4980285;28;20038;-75
2022/04/25 01:42:22;;;;;;;10.70;9.52;;;8.30;99.90;;;;;;4962506;28;20023;-75
2022/04/25 01:44:49;;;;;;;14.40;8.73;;;8.30;99.90;;;;;;4962621;28;20410;-75
2022/04/25 01:47:15;;;;;;;12.27;8.75;;;8.20;99.90;;;;;;4962396;28;20162;-75
2022/04/25 01:49:41;;;;;;;17.75;9.48;;;8.10;99.90;;;;;;4962619;28;20027;-75
2022/04/25 01:52:28;;;;;;;12.57;9.02;;;8.10;99.90;;;;;;4993075;28;20097;-75
2022/04/25 01:54:54;;;;;;;13.43;9.15;;;8.00;99.90;;;;;;4981670;28;20033;-76
2022/04/25 01:57:20;;;;;;;15.75;9.32;;;8.00;99.90;;;;;;4999137;28;20022;-75
2022/04/25 01:59:46;;;;;;;11.77;8.95;;;7.90;99.90;;;;;;4981801;28;20022;-75
2022/04/25 02:02:13;;;;;;;15.68;9.27;;;7.90;99.90;;;;;;4999285;28;20027;-75
2022/04/25 02:04:40;;;;;;;24.90;9.63;;;7.80;99.90;;;;;;4999225;28;20031;-75
2022/04/25 02:07:07;;;;;;;14.45;9.40;;;7.80;99.90;;;;;;4980251;28;20030;-75
2022/04/25 02:09:34;;;;;;;13.98;10.43;;;7.80;99.90;;;;;;4981596;28;20022;-75
2022/04/25 02:12:00;;;;;;;13.77;9.80;;;7.80;99.90;;;;;;4980705;28;20026;-75
2022/04/25 02:14:29;;;;;;;12.98;9.07;;;7.80;99.90;;;;;;4981566;28;20493;-75
2022/04/25 02:16:55;;;;;;;16.63;9.90;;;7.80;99.90;;;;;;4994209;28;20571;-75
2022/04/25 02:19:22;;;;;;;12.02;9.18;;;7.70;99.90;;;;;;4979591;28;20375;-75
2022/04/25 02:21:48;;;;;;;11.48;8.73;;;7.70;99.90;;;;;;4979065;28;20058;-75
2022/04/25 02:24:14;;;;;;;11.73;9.18;;;7.60;99.90;;;;;;4979525;28;20078;-75
2022/04/25 02:26:39;;;;;;;11.68;9.02;;;7.60;99.90;;;;;;4961727;28;20066;-75
2022/04/25 02:29:05;;;;;;;13.70;9.27;;;7.60;99.90;;;;;;4961671;28;20054;-75
2022/04/25 02:31:31;;;;;;;15.18;9.93;;;7.60;99.90;;;;;;4979010;28;20538;-75
2022/04/25 02:33:57;;;;;;;14.98;9.65;;;7.60;99.90;;;;;;4961908;28;20029;-76
2022/04/25 02:36:24;;;;;;;13.10;10.13;;;7.50;99.90;;;;;;4961578;28;20054;-76
2022/04/25 02:38:50;;;;;;;11.88;9.82;;;7.40;99.90;;;;;;4995189;28;20036;-76
2022/04/25 02:41:16;;;;;;;13.77;10.38;;;7.40;99.90;;;;;;4998358;28;20049;-75
2022/04/25 02:43:44;;;;;;;16.17;10.32;;;7.40;99.90;;;;;;4980825;28;20122;-75
2022/04/25 02:46:12;;;;;;;22.63;10.35;;;7.40;99.90;;;;;;4985272;28;20023;-76
2022/04/25 02:48:39;;;;;;;16.75;9.40;;;7.40;99.90;;;;;;4998248;28;20180;-75
2022/04/25 02:51:07;;;;;;;20.67;10.68;;;7.40;99.90;;;;;;4980540;28;20502;-76
2022/04/25 02:53:34;;;;;;;12.85;10.07;;;7.40;99.90;;;;;;4998006;28;20030;-75
2022/04/25 02:56:02;;;;;;;14.75;10.73;;;7.50;99.90;;;;;;4998064;28;20026;-75
2022/04/25 02:58:29;;;;;;;16.23;10.18;;;7.50;99.90;;;;;;4998122;28;20033;-75
2022/04/25 03:00:55;;;;;;;14.73;10.65;;;7.50;99.90;;;;;;4998001;28;20030;-75
2022/04/25 03:03:24;;;;;;;13.50;9.57;;;7.50;99.90;;;;;;4998292;28;20018;-76
2022/04/25 03:05:51;;;;;;;12.60;10.70;;;7.50;99.90;;;;;;4980670;28;20073;-75
2022/04/25 03:08:20;;;;;;;18.73;10.15;;;7.50;99.90;;;;;;4997784;28;20030;-75
2022/04/25 03:10:47;;;;;;;15.02;10.20;;;7.50;99.90;;;;;;4998040;28;20020;-76
2022/04/25 03:13:15;;;;;;;13.93;10.38;;;7.50;99.90;;;;;;4997896;28;20037;-76
2022/04/25 03:15:41;;;;;;;13.90;9.82;;;7.50;99.90;;;;;;4997555;28;20491;-76
2022/04/25 03:18:11;;;;;;;16.83;9.50;;;7.50;99.90;;;;;;4966383;28;20046;-76
2022/04/25 03:20:44;;;;;;;16.17;10.32;;;7.50;99.90;;;;;;4978306;28;20090;-76
2022/04/25 03:23:11;;;;;;;14.82;10.98;;;7.50;99.90;;;;;;4980322;28;20039;-75
2022/04/25 03:25:37;;;;;;;15.32;10.48;;;7.50;99.90;;;;;;4980322;28;20030;-75
2022/04/25 03:28:04;;;;;;;12.88;10.13;;;7.50;99.90;;;;;;4997567;28;20032;-75
2022/04/25 03:30:30;;;;;;;14.68;10.10;;;7.50;99.90;;;;;;4979881;28;20022;-75
2022/04/25 03:32:58;;;;;;;15.95;9.95;;;7.50;99.90;;;;;;4997651;28;20058;-75
2022/04/25 03:35:25;;;;;;;15.73;11.15;;;7.50;99.90;;;;;;4980165;28;20026;-75
2022/04/25 03:37:52;;;;;;;16.80;9.48;;;7.50;99.90;;;;;;4997424;28;20402;-75
2022/04/25 03:40:18;;;;;;;18.40;9.98;;;7.50;99.90;;;;;;4997682;28;20022;-75
2022/04/25 03:42:45;;;;;;;12.00;10.10;;;7.40;99.90;;;;;;4997490;28;20049;-75
2022/04/25 03:45:16;;;;;;;13.85;11.40;;;7.40;99.90;;;;;;4980179;28;20620;-75
2022/04/25 03:47:42;;;;;;;;;;;7.40;99.90;;;;;;4993925;28;20529;-75
2022/04/25 03:50:09;;;;;;;16.33;10.63;;;7.40;99.90;;;;;;4978218;28;19906;-75
2022/04/25 03:52:36;;;;;;;12.88;9.93;;;7.40;99.90;;;;;;4978098;28;20356;-75
2022/04/25 03:57:54;;;;;;;25.38;12.43;;;7.50;99.90;;;;;;4985769;28;20076;-75
2022/04/25 04:00:21;;;;;;;22.63;12.45;;;7.60;99.90;;;;;;4980082;28;20031;-75
2022/04/25 04:02:47;;;;;;;27.08;17.05;;;7.70;99.90;;;;;;4979980;28;20454;-75
2022/04/25 04:05:13;;;;;;;24.50;13.93;;;7.80;99.90;;;;;;4980101;28;20033;-75
2022/04/25 04:07:40;;;;;;;30.10;13.80;;;7.90;99.90;;;;;;4997268;28;20030;-75
2022/04/25 04:10:07;;;;;;;25.23;15.10;;;8.00;99.90;;;;;;4965330;28;20058;-75
2022/04/25 04:12:34;;;;;;;28.63;16.45;;;8.10;99.90;;;;;;4977990;28;20023;-76
2022/04/25 04:15:07;;;;;;;28.23;15.40;;;8.20;99.90;;;;;;4979579;28;20042;-76
2022/04/25 04:17:34;;;;;;;24.63;15.43;;;8.20;99.90;;;;;;4988256;28;20035;-76
2022/04/25 04:20:03;;;;;;;23.20;14.35;;;8.20;99.90;;;;;;4977732;28;20426;-76
2022/04/25 04:22:31;;;;;;;25.83;13.77;;;8.20;99.90;;;;;;4977815;28;20065;-75
2022/04/25 04:25:02;;;;;;;23.73;14.65;;;8.20;99.90;;;;;;4981543;28;20068;-75
2022/04/25 04:27:31;;;;;;;;;;;8.30;99.90;;;;;;4980111;28;20034;-75
2022/04/25 04:29:58;;;;;;;21.45;14.82;;;8.30;99.90;;;;;;4979465;28;19906;-75
2022/04/25 04:32:29;;;;;;;38.40;16.73;;;8.40;99.90;;;;;;4997086;28;20598;-75
2022/04/25 04:34:58;;;;;;;30.10;15.93;;;8.60;99.90;;;;;;4997432;28;20026;-75
2022/04/25 04:37:25;;;;;;;29.00;16.52;;;8.70;99.90;;;;;;4982979;28;20094;-75
2022/04/25 04:40:28;;;;;;;31.52;16.65;;;8.80;99.90;;;;;;5000839;28;20030;-75
2022/04/25 04:42:41;;;;;;;36.80;17.38;;;8.80;99.90;;;;;;5000355;28;20101;-75
2022/04/25 04:45:07;;;;;;;24.15;15.20;;;8.90;99.90;;;;;;5000602;28;20394;-75
2022/04/25 04:47:36;;;;;;;28.38;14.95;;;9.00;99.90;;;;;;4987356;28;20570;-75
2022/04/25 04:50:07;;;;;;;33.00;15.65;;;9.10;99.90;;;;;;4983043;28;20615;-75
2022/04/25 04:52:33;;;;;;;29.58;17.42;;;9.10;99.90;;;;;;4982569;28;20030;-76
2022/04/25 04:54:59;;;;;;;33.88;20.75;;;9.10;99.90;;;;;;5000435;28;20105;-75
2022/04/25 04:57:25;;;;;;;30.00;18.55;;;9.20;99.90;;;;;;4982628;28;20054;-76
2022/04/25 04:59:51;;;;;;;30.13;18.02;;;9.20;99.90;;;;;;4982650;28;20023;-76
2022/04/25 05:02:17;;;;;;;36.63;19.33;;;9.20;99.90;;;;;;5000192;28;20023;-76
2022/04/25 05:04:47;;;;;;;27.77;18.80;;;9.20;99.90;;;;;;4982813;28;20441;-76
2022/04/25 05:07:12;;;;;;;31.20;18.52;;;9.30;99.90;;;;;;4982235;28;20054;-76
2022/04/25 05:09:38;;;;;;;25.90;16.40;;;9.30;99.90;;;;;;5000483;28;20105;-75
2022/04/25 05:12:05;;;;;;;33.15;18.70;;;9.30;99.90;;;;;;4999989;28;20022;-75
2022/04/25 05:14:30;;;;;;;25.80;17.77;;;9.40;99.90;;;;;;4970536;28;20027;-75
2022/04/25 05:16:56;;;;;;;32.38;17.13;;;9.30;99.90;;;;;;4993661;28;20051;-75
2022/04/25 05:19:22;;;;;;;27.58;17.02;;;9.40;99.90;;;;;;4980550;28;20395;-75
2022/04/25 05:21:48;;;;;;;23.83;17.15;;;9.40;99.90;;;;;;4963039;28;20023;-75
2022/04/25 05:24:14;;;;;;;25.30;15.80;;;9.40;99.90;;;;;;4963445;28;20570;-75
2022/04/25 05:26:40;;;;;;;30.10;17.50;;;9.50;99.90;;;;;;4962963;28;20117;-76
2022/04/25 05:29:06;;;;;;;30.38;15.13;;;9.50;99.90;;;;;;4980135;28;20102;-74
2022/04/25 05:31:32;;;;;;;25.52;16.08;;;9.60;99.90;;;;;;4980263;28;20022;-75
2022/04/25 05:33:59;;;;;;;31.60;15.93;;;9.60;99.90;;;;;;4980373;28;20065;-75
2022/04/25 05:36:25;;;;;;;32.15;17.85;;;9.60;99.90;;;;;;4963006;28;20069;-75
2022/04/25 05:38:51;;;;;;;26.55;15.00;;;9.60;99.90;;;;;;4993408;28;20027;-75
2022/04/25 05:41:18;;;;;;;22.63;14.80;;;9.70;99.90;;;;;;4982248;28;20509;-76
2022/04/25 05:43:44;;;;;;;30.30;15.95;;;9.70;99.90;;;;;;4998938;28;20040;-75
2022/04/25 05:46:11;;;;;;;23.40;14.20;;;9.70;99.90;;;;;;4998779;28;20023;-75
2022/04/25 05:54:06;;;;;;;31.95;15.48;;;9.90;99.90;;;;;;4999458;28;20520;-76
2022/04/25 05:56:32;;;;;;;21.33;14.85;;;10.00;99.90;;;;;;4981826;28;20462;-75
2022/04/25 05:58:58;;;;;;;23.77;15.43;;;10.00;99.90;;;;;;4981763;28;20109;-76
2022/04/25 06:01:24;;;;;;;23.40;13.63;;;10.10;99.90;;;;;;4981726;28;20069;-76
2022/04/25 06:03:50;;;;;;;26.52;15.00;;;10.20;99.90;;;;;;4998827;28;20030;-75
2022/04/25 06:06:20;;;;;;;27.80;17.70;;;10.20;99.90;;;;;;4999060;28;20076;-75
2022/04/25 06:08:46;;;;;;;22.80;15.50;;;10.30;99.90;;;;;;4981050;28;20031;-76
2022/04/25 06:11:12;;;;;;;23.85;14.02;;;10.40;99.90;;;;;;4998950;28;20039;-76
2022/04/25 06:13:38;;;;;;;31.35;17.20;;;10.40;99.90;;;;;;4999042;28;20015;-75
2022/04/25 06:16:05;;;;;;;25.75;15.23;;;10.50;99.90;;;;;;4980945;28;20494;-75
2022/04/25 06:18:32;;;;;;;28.17;15.35;;;10.50;99.90;;;;;;4994753;28;20034;-75
2022/04/25 06:20:59;;;;;;;27.83;16.02;;;10.60;99.90;;;;;;4981300;28;20040;-75
2022/04/25 06:23:25;;;;;;;25.55;16.13;;;10.60;99.90;;;;;;4980731;28;20434;-75
2022/04/25 06:25:50;;;;;;;23.98;15.50;;;10.70;99.90;;;;;;4981372;28;20033;-75
2022/04/25 06:28:17;;;;;;;23.13;14.00;;;10.70;99.90;;;;;;4998397;28;20101;-75
2022/04/25 06:30:43;;;;;;;24.92;15.32;;;10.80;99.90;;;;;;4998764;28;20026;-75
2022/04/25 06:33:10;;;;;;;24.88;13.75;;;10.90;99.90;;;;;;4998444;28;20026;-75
2022/04/25 06:35:36;;;;;;;25.00;14.45;;;11.00;99.90;;;;;;4998560;28;20068;-75
2022/04/25 06:38:02;;;;;;;22.98;14.50;;;11.10;99.90;;;;;;4998313;28;20106;-75
2022/04/25 06:40:28;;;;;;;25.65;13.32;;;11.30;99.90;;;;;;4998485;28;20120;-75
2022/04/25 06:42:55;;;;;;;18.23;13.60;;;11.40;99.90;;;;;;4980855;28;20528;-75
2022/04/25 06:45:21;;;;;;;30.83;13.43;;;11.50;99.90;;;;;;4998529;28;20028;-75
2022/04/25 06:47:47;;;;;;;24.27;12.98;;;11.70;99.90;;;;;;4998105;28;20038;-74
2022/04/25 06:50:13;;;;;;;26.13;12.50;;;11.80;99.90;;;;;;4998229;28;20030;-75
2022/04/25 06:52:40;;;;;;;20.77;13.10;;;11.70;99.90;;;;;;4980236;28;20019;-75
2022/04/25 06:55:06;;;;;;;24.17;13.93;;;11.70;99.90;;;;;;4998072;28;20030;-74
2022/04/25 06:57:35;;;;;;;23.00;13.15;;;11.60;99.90;;;;;;4997671;28;20022;-75
2022/04/25 07:00:03;;;;;;;21.50;13.63;;;11.60;99.90;;;;;;4980121;28;20037;-75
2022/04/25 07:02:28;;;;;;;26.20;13.50;;;11.60;99.90;;;;;;4979298;28;20056;-76
2022/04/25 07:04:55;;;;;;;27.35;14.02;;;11.60;99.90;;;;;;4978278;28;20099;-76
2022/04/25 07:07:21;;;;;;;25.25;13.82;;;11.50;99.90;;;;;;4994360;28;20109;-75
2022/04/25 07:09:47;;;;;;;30.13;14.80;;;11.60;99.90;;;;;;4985491;28;20065;-76
2022/04/25 07:12:13;;;;;;;24.83;15.45;;;11.70;99.90;;;;;;4978316;28;20026;-76
2022/04/25 07:14:39;;;;;;;35.22;15.68;;;11.90;99.90;;;;;;4980152;28;20045;-76
2022/04/25 07:17:05;;;;;;;23.90;14.40;;;12.00;99.90;;;;;;4973565;28;20050;-75
2022/04/25 07:19:31;;;;;;;23.33;14.95;;;12.20;99.90;;;;;;4960981;28;20027;-76
2022/04/25 07:30:11;;;;;;;23.05;13.45;;;13.00;99.90;;;;;;4994772;28;20045;-76
2022/04/25 07:32:39;;;;;;;22.10;12.35;;;12.90;99.90;;;;;;4977356;28;20057;-77
2022/04/25 07:35:06;;;;;;;25.25;12.00;;;13.00;99.90;;;;;;4992683;28;20022;-77
2022/04/25 07:37:33;;;;;;;23.77;11.98;;;13.20;99.90;;;;;;4975713;28;20018;-76
2022/04/25 07:40:00;;;;;;;25.35;12.48;;;13.50;99.90;;;;;;4992904;28;20053;-76
2022/04/25 07:42:26;;;;;;;22.30;11.27;;;13.70;99.90;;;;;;4977693;28;20042;-76
2022/04/25 07:44:52;;;;;;;25.08;10.20;;;13.60;99.90;;;;;;4983515;28;20022;-76
2022/04/25 07:47:18;;;;;;;21.90;10.80;;;13.50;99.90;;;;;;4986727;28;20471;-77
2022/04/25 07:49:44;;;;;;;27.00;10.70;;;13.50;99.90;;;;;;4978941;28;20029;-76
2022/04/25 07:52:10;;;;;;;14.25;9.57;;;13.60;99.90;;;;;;4977380;28;20061;-76
2022/04/25 07:54:36;;;;;;;30.63;12.23;;;13.70;99.90;;;;;;4994342;28;20524;-77
2022/04/25 07:57:05;;;;;;;19.08;10.02;;;13.40;99.90;;;;;;4966206;28;20031;-75
2022/04/25 07:59:32;;;;;;;20.20;8.55;;;13.50;99.90;;;;;;4960543;28;20405;-76
2022/04/25 08:01:58;;;;;;;16.50;8.90;;;13.30;99.90;;;;;;4977923;28;20023;-76
2022/04/25 08:04:24;;;;;;;17.27;8.35;;;13.30;99.90;;;;;;4970065;28;20031;-76
2022/04/25 08:06:50;;;;;;;20.33;9.15;;;13.20;99.90;;;;;;4977697;28;20022;-76
2022/04/25 08:09:16;;;;;;;19.23;9.02;;;13.50;99.90;;;;;;4990641;28;20066;-76
2022/04/25 08:11:42;;;;;;;21.60;8.38;;;13.40;99.90;;;;;;5000676;28;20411;-76
2022/04/25 08:19:39;;;;;;;19.98;9.40;;;13.80;99.90;;;;;;4998857;28;20057;-76
2022/04/25 08:22:09;;;;;;;23.52;11.52;;;13.90;99.90;;;;;;5000892;28;20026;-76
2022/04/25 08:24:36;;;;;;;16.90;7.93;;;14.00;99.90;;;;;;5000824;28;20109;-76
2022/04/25 08:27:05;;;;;;;16.52;8.55;;;14.00;99.90;;;;;;5000925;28;20265;-76
2022/04/25 08:29:35;;;;;;;18.75;8.25;;;14.00;99.90;;;;;;5000208;28;20489;-76
2022/04/25 08:32:01;;;;;;;13.45;7.82;;;14.10;99.90;;;;;;4992028;28;20029;-76
2022/04/25 08:34:27;;;;;;;16.10;8.10;;;14.10;99.90;;;;;;4963924;28;20026;-77
2022/04/25 08:36:53;;;;;;;17.73;7.88;;;14.20;99.90;;;;;;4988687;28;20023;-76
2022/04/25 08:39:19;;;;;;;14.45;8.10;;;14.20;99.90;;;;;;4994007;28;20105;-75
2022/04/25 08:41:53;;;;;;;17.67;8.52;;;14.30;99.90;;;;;;4981348;28;20027;-75
2022/04/25 08:44:19;;;;;;;19.33;8.00;;;14.60;99.90;;;;;;4978034;28;20035;-74
2022/04/25 08:46:49;;;;;;;16.90;8.07;;;14.70;99.90;;;;;;4981044;28;20034;-75
2022/04/25 08:49:16;;;;;;;21.38;8.20;;;14.60;99.90;;;;;;4991203;28;20034;-77
2022/04/25 08:51:42;;;;;;;18.08;7.93;;;14.40;99.90;;;;;;4987837;28;20072;-75
2022/04/25 08:54:08;;;;;;;16.67;7.78;;;14.40;99.90;;;;;;4981608;28;20022;-75
2022/04/25 08:56:36;;;;;;;16.98;9.02;;;14.30;99.90;;;;;;4999522;28;20562;-75
2022/04/25 08:59:05;;;;;;;15.73;9.10;;;14.20;99.90;;;;;;4978066;28;20035;-75
2022/04/25 09:01:32;;;;;;;14.40;7.93;;;14.10;99.90;;;;;;4982805;28;20023;-75
2022/04/25 09:03:59;;;;;;;18.33;7.35;;;14.10;99.90;;;;;;4989264;28;20034;-76
2022/04/25 09:06:25;;;;;;;14.85;7.10;;;14.30;99.90;;;;;;4997125;28;20022;-76
2022/04/25 09:08:51;;;;;;;16.90;7.97;;;14.70;99.90;;;;;;4982272;28;20027;-75
2022/04/25 09:14:02;;;;;;;19.92;8.98;;;15.20;99.90;;;;;;4989136;28;20037;-75
2022/04/25 09:16:28;;;;;;;13.48;7.45;;;15.40;99.90;;;;;;4978675;28;20082;-75
2022/04/25 09:18:54;;;;;;;13.65;7.47;;;15.40;99.90;;;;;;4961803;28;20031;-75
2022/04/25 09:21:21;;;;;;;20.10;8.18;;;15.70;99.90;;;;;;4960780;28;20027;-76
2022/04/25 09:23:47;;;;;;;12.95;7.20;;;16.00;99.90;;;;;;4959731;28;20035;-76
2022/04/25 09:26:20;;;;;;;14.88;6.80;;;15.90;99.90;;;;;;4959396;28;20033;-76
2022/04/25 09:28:52;;;;;;;13.38;6.55;;;15.90;99.90;;;;;;4960895;28;20106;-76
2022/04/25 09:31:19;;;;;;;13.30;5.97;;;15.90;99.90;;;;;;4959571;28;20387;-76
2022/04/25 09:33:46;;;;;;;12.48;6.88;;;15.80;99.90;;;;;;4960995;28;20024;-76
2022/04/25 09:36:12;;;;;;;14.50;6.60;;;15.80;99.90;;;;;;4960862;28;20051;-76
2022/04/25 09:38:40;;;;;;;9.40;6.38;;;15.70;99.90;;;;;;4959052;28;20030;-76
2022/04/25 09:41:11;;;;;;;14.20;5.88;;;15.60;99.90;;;;;;4963221;28;20110;-75
2022/04/25 09:43:41;;;;;;;13.50;6.28;;;15.90;99.90;;;;;;4960627;28;20034;-76
2022/04/25 09:46:15;;;;;;;11.90;5.75;;;16.20;99.90;;;;;;4959335;28;20031;-75
2022/04/25 09:49:01;;;;;;;10.95;7.30;;;16.10;99.90;;;;;;4960362;28;20027;-75
2022/04/25 09:51:27;;;;;;;21.90;6.85;;;15.80;99.90;;;;;;4968854;28;20066;-75
2022/04/25 09:53:54;;;;;;;11.60;6.25;;;15.70;99.90;;;;;;4979689;28;20030;-75
2022/04/25 09:56:22;;;;;;;13.02;6.53;;;15.80;99.90;;;;;;4979984;28;20066;-77
2022/04/25 09:59:06;;;;;;;14.75;6.25;;;15.90;99.90;;;;;;4979495;28;20026;-76
2022/04/25 10:01:37;;;;;;;15.55;6.75;;;15.70;99.90;;;;;;4979193;28;20030;-75
2022/04/25 10:04:04;;;;;;;15.70;7.55;;;15.60;99.90;;;;;;4978309;28;20030;-75
2022/04/25 10:06:34;;;;;;;13.35;6.60;;;15.40;99.90;;;;;;4978315;28;20061;-76
2022/04/25 10:09:03;;;;;;;13.90;5.88;;;15.60;99.90;;;;;;4960057;28;20058;-77
2022/04/25 10:11:35;;;;;;;12.55;6.78;;;15.90;99.90;;;;;;4958804;28;20118;-76
2022/04/25 10:14:01;;;;;;;13.40;6.85;;;16.10;99.90;;;;;;4959945;28;20070;-78
2022/04/25 10:16:28;;;;;;;20.25;6.95;;;16.50;99.90;;;;;;4985982;28;20039;-76
2022/04/25 10:18:55;;;;;;;12.20;6.53;;;16.40;99.90;;;;;;4979509;28;20030;-76
2022/04/25 10:21:22;;;;;;;13.18;6.95;;;16.30;99.90;;;;;;4962083;28;20411;-76
2022/04/25 10:23:49;;;;;;;12.65;6.68;;;16.30;99.90;;;;;;4961890;28;20027;-77
2022/04/25 10:26:15;;;;;;;16.70;7.20;;;16.70;99.90;;;;;;4980958;28;20033;-77
2022/04/25 10:28:56;;;;;;;15.85;5.88;;;16.60;99.90;;;;;;4996656;28;20022;-77
2022/04/25 10:31:21;;;;;;;;;;;16.80;99.90;;;;;;4982521;28;20011;-77
2022/04/25 10:33:58;;;;;;;14.90;7.07;;;16.80;99.90;;;;;;4991320;28;20420;-77
2022/04/25 10:36:47;;;;;;;14.63;6.07;;;17.10;99.90;;;;;;4980771;28;20061;-76
2022/04/25 10:39:24;;;;;;;12.38;6.15;;;17.40;99.90;;;;;;4988824;28;20040;-76
2022/04/25 10:44:43;;;;;;;15.48;6.05;;;17.70;99.90;;;;;;4979143;28;20038;-77
2022/04/25 10:47:16;;;;;;;11.73;6.70;;;17.60;99.90;;;;;;4976770;28;20037;-76
2022/04/25 10:49:47;;;;;;;14.35;6.28;;;17.50;99.90;;;;;;4978826;28;20411;-76
2022/04/25 10:52:33;;;;;;;15.23;6.55;;;17.30;99.90;;;;;;4993813;28;20360;-76
2022/04/25 10:55:38;;;;;;;16.92;5.40;;;17.30;99.90;;;;;;4998521;28;20026;-77
2022/04/25 10:58:02;;;;;;;11.57;5.13;;;17.30;99.90;;;;;;4997439;28;20173;-77
2022/04/25 11:00:40;;;;;;;12.18;6.65;;;17.20;99.90;;;;;;4980333;28;20065;-77
2022/04/25 11:03:10;;;;;;;8.68;5.85;;;17.30;99.90;;;;;;4980574;28;20030;-76
2022/04/25 11:05:39;;;;;;;12.38;5.65;;;17.30;99.90;;;;;;4997948;28;20015;-76
2022/04/25 11:08:21;;;;;;;15.68;5.82;;;17.50;99.90;;;;;;4997557;28;20038;-77
2022/04/25 11:10:57;;;;;;;14.75;6.57;;;17.40;99.90;;;;;;4980369;28;20027;-76
2022/04/25 11:13:28;;;;;;;11.15;5.72;;;17.40;99.90;;;;;;4997222;28;20018;-76
2022/04/25 11:15:59;;;;;;;18.08;6.18;;;17.00;99.90;;;;;;4980124;28;20538;-76
2022/04/25 11:18:38;;;;;;;11.38;5.43;;;17.10;99.90;;;;;;4964079;28;20042;-76
2022/04/25 11:21:13;;;;;;;13.45;6.13;;;17.10;99.90;;;;;;4972648;28;20145;-77
2022/04/25 11:23:45;;;;;;;16.52;5.85;;;17.00;99.90;;;;;;4983942;28;20113;-76
2022/04/25 11:26:36;;;;;;;11.82;6.05;;;16.80;99.90;;;;;;4976742;28;20109;-76
2022/04/25 11:29:09;;;;;;;13.43;5.15;;;16.70;99.90;;;;;;4996137;28;20029;-78
2022/04/25 11:31:38;;;;;;;8.25;5.63;;;16.70;99.90;;;;;;4994418;28;20050;-77
2022/04/25 11:34:11;;;;;;;17.55;5.30;;;17.00;99.90;;;;;;4977628;28;20018;-76
2022/04/25 11:36:39;;;;;;;12.57;5.65;;;17.50;99.90;;;;;;4996664;28;20050;-76
2022/04/25 11:41:50;;;;;;;17.38;7.22;;;17.50;99.90;;;;;;4987436;28;20042;-77
2022/04/25 11:44:16;;;;;;;10.50;5.57;;;17.50;99.90;;;;;;4973316;28;20027;-76
2022/04/25 11:46:43;;;;;;;10.82;6.40;;;17.60;99.90;;;;;;5000289;28;20026;-76
2022/04/25 11:49:09;;;;;;;7.93;4.75;;;17.70;99.90;;;;;;4982717;28;20474;-76
2022/04/25 11:51:37;;;;;;;11.27;4.95;;;17.60;99.90;;;;;;4999529;28;20022;-76
2022/04/25 11:54:10;;;;;;;13.88;5.50;;;17.60;99.90;;;;;;4982436;28;20026;-77
2022/04/25 11:56:40;;;;;;;12.27;5.80;;;17.30;99.90;;;;;;4999349;28;20387;-77
2022/04/25 11:59:18;;;;;;;8.43;4.80;;;17.30;99.90;;;;;;4998300;28;20029;-76
2022/04/25 12:01:48;;;;;;;9.63;4.72;;;17.10;99.90;;;;;;4999906;28;20014;-77
2022/04/25 12:04:20;;;;;;;13.38;5.60;;;17.10;99.90;;;;;;4998675;28;20034;-76
2022/04/25 12:06:59;;;;;;;19.58;5.85;;;17.20;99.90;;;;;;4980614;28;20061;-76
2022/04/25 12:15:37;;;;;;;14.52;5.13;;;17.40;99.90;;;;;;4974450;28;20160;-76
2022/04/25 12:18:24;;;;;;;13.23;5.40;;;17.50;99.90;;;;;;4986062;28;20035;-78
2022/04/25 12:21:04;;;;;;;14.13;5.47;;;17.60;99.90;;;;;;4981612;28;20041;-79
2022/04/25 12:23:39;;;;;;;13.50;5.97;;;17.70;99.90;;;;;;4980839;28;20031;-76
2022/04/25 12:26:08;;;;;;;9.18;4.75;;;17.80;99.90;;;;;;4964245;28;20054;-76
2022/04/25 12:28:38;;;;;;;7.00;4.07;;;17.90;99.90;;;;;;4987854;28;20042;-76
2022/04/25 12:31:04;;;;;;;8.73;3.97;;;18.10;99.90;;;;;;5000907;28;20386;-77
2022/04/25 12:33:34;;;;;;;8.07;4.53;;;17.90;99.90;;;;;;5000898;28;20022;-76
2022/04/25 12:36:19;;;;;;;9.50;4.95;;;17.70;99.90;;;;;;5000447;28;20046;-76
2022/04/25 12:38:58;;;;;;;16.30;5.07;;;17.50;99.90;;;;;;5000039;28;20555;-77
2022/04/25 12:41:31;;;;;;;9.88;4.65;;;17.50;99.90;;;;;;4981840;28;20081;-76
2022/04/25 12:43:59;;;;;;;7.40;4.38;;;17.60;99.90;;;;;;4981040;28;20023;-77
2022/04/25 12:46:55;;;;;;;7.32;4.20;;;17.90;99.90;;;;;;4963501;28;20121;-77
2022/04/25 12:49:39;;;;;;;8.07;6.18;;;18.20;99.90;;;;;;4981012;28;20023;-77
2022/04/25 12:52:08;;;;;;;9.95;5.28;;;18.50;99.90;;;;;;4982351;28;20054;-77
2022/04/25 12:54:40;;;;;;;8.77;3.75;;;18.50;99.90;;;;;;5000478;28;20023;-77
2022/04/25 12:57:26;;;;;;;9.02;4.10;;;18.30;99.90;;;;;;4999792;28;20065;-76
2022/04/25 12:59:54;;;;;;;12.88;4.97;;;18.30;99.90;;;;;;5000212;28;20073;-76
2022/04/25 13:02:22;;;;;;;14.55;4.80;;;18.40;99.90;;;;;;5000162;28;20027;-77
2022/04/25 13:04:59;;;;;;;9.77;5.13;;;18.50;99.90;;;;;;5000269;28;20501;-76
2022/04/25 13:07:31;;;;;;;8.55;4.88;;;18.40;99.90;;;;;;4999895;28;20434;-77
2022/04/25 13:10:00;;;;;;;16.75;4.35;;;18.30;99.90;;;;;;5000214;28;20086;-76
2022/04/25 13:12:37;;;;;;;9.18;4.53;;;18.20;99.90;;;;;;5000252;28;20489;-76
2022/04/25 13:15:06;;;;;;;10.73;4.70;;;18.20;99.90;;;;;;4999568;28;20102;-77
2022/04/25 13:17:32;;;;;;;6.57;4.35;;;18.20;99.90;;;;;;4991124;28;20113;-75
2022/04/25 13:19:59;;;;;;;10.38;4.18;;;18.40;99.90;;;;;;4980504;28;20023;-76
2022/04/25 13:22:25;;;;;;;14.63;5.40;;;18.50;99.90;;;;;;4980412;28;20018;-76
2022/04/25 13:24:51;;;;;;;8.88;4.70;;;18.70;99.90;;;;;;4963229;28;20027;-76
2022/04/25 13:27:17;;;;;;;11.82;4.07;;;18.80;99.90;;;;;;4980463;28;20025;-76